sensor_id;sensor_type;location;lat;lon;timestamp;pressure;altitude;pressure_sealevel;temperature;humidity
7918;BME280;4004;42.624;23.386;2023-03-03T00:00:41;94177.63;;;3.21;100.00
7918;BME280;4004;42.624;23.386;2023-03-03T00:03:09;94176.06;;;3.20;100.00
7918;BME280;4004;42.624;23.386;2023-03-03T00:05:37;94181.38;;;3.20;100.00
7918;BME280;4004;42.624;23.386;2023-03-03T00:08:04;94175.25;;;3.20;100.00
7918;BME280;4004;42.624;23.386;2023-03-03T00:10:31;94186.50;;;3.17;100.00
7918;BME280;4004;42.624;23.386;2023-03-03T00:12:59;94172.59;;;3.20;100.00
7918;BME280;4004;42.624;23.386;2023-03-03T00:15:27;94179.00;;;3.19;100.00
7918;BME280;4004;42.624;23.386;2023-03-03T00:17:54;94174.78;;;3.18;100.00
7918;BME280;4004;42.624;23.386;2023-03-03T00:20:28;94168.09;;;3.20;100.00
7918;BME280;4004;42.624;23.386;2023-03-03T00:22:55;94173.75;;;3.27;100.00
7918;BME280;4004;42.624;23.386;2023-03-03T00:25:28;94167.75;;;3.22;100.00
7918;BME280;4004;42.624;23.386;2023-03-03T00:27:55;94177.00;;;3.24;100.00
7918;BME280;4004;42.624;23.386;2023-03-03T00:30:25;94168.09;;;3.20;100.00
7918;BME280;4004;42.624;23.386;2023-03-03T00:32:52;94161.38;;;3.23;100.00
7918;BME280;4004;42.624;23.386;2023-03-03T00:35:25;94171.53;;;3.21;100.00
7918;BME280;4004;42.624;23.386;2023-03-03T00:37:54;94154.19;;;3.23;100.00
7918;BME280;4004;42.624;23.386;2023-03-03T00:40:22;94157.03;;;3.27;100.00
7918;BME280;4004;42.624;23.386;2023-03-03T00:42:52;94152.16;;;3.29;100.00
7918;BME280;4004;42.624;23.386;2023-03-03T00:45:29;94145.00;;;3.29;100.00
7918;BME280;4004;42.624;23.386;2023-03-03T00:48:07;94139.53;;;3.35;100.00
7918;BME280;4004;42.624;23.386;2023-03-03T00:50:39;94138.91;;;3.38;100.00
7918;BME280;4004;42.624;23.386;2023-03-03T00:53:10;94128.91;;;3.35;100.00
7918;BME280;4004;42.624;23.386;2023-03-03T00:55:37;94129.66;;;3.26;100.00
7918;BME280;4004;42.624;23.386;2023-03-03T00:58:05;94123.41;;;3.31;100.00
7918;BME280;4004;42.624;23.386;2023-03-03T01:00:34;94124.22;;;3.31;100.00
7918;BME280;4004;42.624;23.386;2023-03-03T01:03:03;94121.38;;;3.28;100.00
7918;BME280;4004;42.624;23.386;2023-03-03T01:05:30;94113.56;;;3.31;100.00
7918;BME280;4004;42.624;23.386;2023-03-03T01:07:57;94111.22;;;3.30;100.00
7918;BME280;4004;42.624;23.386;2023-03-03T01:10:25;94103.56;;;3.28;100.00
7918;BME280;4004;42.624;23.386;2023-03-03T01:12:53;94112.63;;;3.27;100.00
7918;BME280;4004;42.624;23.386;2023-03-03T01:15:22;94100.91;;;3.28;100.00
7918;BME280;4004;42.624;23.386;2023-03-03T01:17:50;94107.63;;;3.26;100.00
7918;BME280;4004;42.624;23.386;2023-03-03T01:20:17;94102.00;;;3.27;100.00
7918;BME280;4004;42.624;23.386;2023-03-03T01:22:44;94103.72;;;3.23;100.00
7918;BME280;4004;42.624;23.386;2023-03-03T01:25:10;94103.03;;;3.18;100.00
7918;BME280;4004;42.624;23.386;2023-03-03T01:27:37;94104.44;;;3.15;100.00
7918;BME280;4004;42.624;23.386;2023-03-03T01:30:05;94106.47;;;3.09;100.00
7918;BME280;4004;42.624;23.386;2023-03-03T01:32:33;94096.91;;;3.00;100.00
7918;BME280;4004;42.624;23.386;2023-03-03T01:35:01;94097.72;;;3.09;100.00
7918;BME280;4004;42.624;23.386;2023-03-03T01:37:28;94095.84;;;3.09;100.00
7918;BME280;4004;42.624;23.386;2023-03-03T01:39:55;94101.75;;;3.06;100.00
7918;BME280;4004;42.624;23.386;2023-03-03T01:42:21;94090.38;;;3.06;100.00
7918;BME280;4004;42.624;23.386;2023-03-03T01:44:48;94088.03;;;3.13;100.00
7918;BME280;4004;42.624;23.386;2023-03-03T01:47:34;94097.91;;;3.21;100.00
7918;BME280;4004;42.624;23.386;2023-03-03T01:50:05;94097.13;;;3.21;100.00
7918;BME280;4004;42.624;23.386;2023-03-03T01:52:40;94093.06;;;3.15;100.00
7918;BME280;4004;42.624;23.386;2023-03-03T01:55:12;94086.97;;;3.14;100.00
7918;BME280;4004;42.624;23.386;2023-03-03T01:57:41;94092.44;;;3.18;100.00
7918;BME280;4004;42.624;23.386;2023-03-03T02:00:11;94091.06;;;3.20;100.00
7918;BME280;4004;42.624;23.386;2023-03-03T02:02:39;94087.75;;;3.15;100.00
7918;BME280;4004;42.624;23.386;2023-03-03T02:05:09;94089.75;;;3.09;100.00
7918;BME280;4004;42.624;23.386;2023-03-03T02:07:37;94087.88;;;3.09;100.00
7918;BME280;4004;42.624;23.386;2023-03-03T02:10:06;94089.91;;;3.13;100.00
7918;BME280;4004;42.624;23.386;2023-03-03T02:12:39;94089.28;;;3.16;100.00
7918;BME280;4004;42.624;23.386;2023-03-03T02:15:20;94086.66;;;3.24;100.00
7918;BME280;4004;42.624;23.386;2023-03-03T02:17:48;94088.84;;;3.22;100.00
7918;BME280;4004;42.624;23.386;2023-03-03T02:20:27;94082.59;;;3.18;100.00
7918;BME280;4004;42.624;23.386;2023-03-03T02:23:00;94090.41;;;3.23;100.00
7918;BME280;4004;42.624;23.386;2023-03-03T02:25:32;94090.69;;;3.13;100.00
7918;BME280;4004;42.624;23.386;2023-03-03T02:28:02;94097.59;;;3.14;100.00
7918;BME280;4004;42.624;23.386;2023-03-03T02:30:29;94091.66;;;3.17;100.00
7918;BME280;4004;42.624;23.386;2023-03-03T02:32:55;94094.75;;;3.10;100.00
7918;BME280;4004;42.624;23.386;2023-03-03T02:35:28;94088.22;;;3.17;100.00
7918;BME280;4004;42.624;23.386;2023-03-03T02:38:00;94090.22;;;3.11;100.00
7918;BME280;4004;42.624;23.386;2023-03-03T02:40:31;94091.81;;;3.12;100.00
7918;BME280;4004;42.624;23.386;2023-03-03T02:43:02;94089.94;;;3.21;100.00
7918;BME280;4004;42.624;23.386;2023-03-03T02:45:30;94083.19;;;3.15;100.00
7918;BME280;4004;42.624;23.386;2023-03-03T02:47:57;94085.72;;;3.20;100.00
7918;BME280;4004;42.624;23.386;2023-03-03T02:50:23;94091.50;;;3.22;100.00
7918;BME280;4004;42.624;23.386;2023-03-03T02:52:50;94091.66;;;3.26;100.00
7918;BME280;4004;42.624;23.386;2023-03-03T02:55:17;94086.50;;;3.21;100.00
7918;BME280;4004;42.624;23.386;2023-03-03T02:57:44;94088.72;;;3.27;100.00
7918;BME280;4004;42.624;23.386;2023-03-03T03:00:12;94089.66;;;3.23;100.00
7918;BME280;4004;42.624;23.386;2023-03-03T03:02:39;94088.06;;;3.22;100.00
7918;BME280;4004;42.624;23.386;2023-03-03T03:05:06;94085.56;;;3.17;100.00
7918;BME280;4004;42.624;23.386;2023-03-03T03:07:33;94087.91;;;3.18;100.00
7918;BME280;4004;42.624;23.386;2023-03-03T03:10:00;94085.72;;;3.20;100.00
7918;BME280;4004;42.624;23.386;2023-03-03T03:12:27;94074.47;;;3.23;100.00
7918;BME280;4004;42.624;23.386;2023-03-03T03:14:54;94080.56;;;3.24;100.00
7918;BME280;4004;42.624;23.386;2023-03-03T03:17:22;94087.59;;;3.20;100.00
7918;BME280;4004;42.624;23.386;2023-03-03T03:19:48;94081.03;;;3.17;100.00
7918;BME280;4004;42.624;23.386;2023-03-03T03:22:15;94083.38;;;3.19;100.00
7918;BME280;4004;42.624;23.386;2023-03-03T03:24:43;94080.25;;;3.17;100.00
7918;BME280;4004;42.624;23.386;2023-03-03T03:27:10;94074.16;;;3.16;100.00
7918;BME280;4004;42.624;23.386;2023-03-03T03:29:37;94077.13;;;3.15;100.00
7918;BME280;4004;42.624;23.386;2023-03-03T03:32:04;94079.47;;;3.16;100.00
7918;BME280;4004;42.624;23.386;2023-03-03T03:34:32;94083.38;;;3.19;100.00
7918;BME280;4004;42.624;23.386;2023-03-03T03:36:59;94077.88;;;3.15;100.00
7918;BME280;4004;42.624;23.386;2023-03-03T03:39:26;94074.44;;;3.06;100.00
7918;BME280;4004;42.624;23.386;2023-03-03T03:41:52;94072.06;;;3.04;100.00
7918;BME280;4004;42.624;23.386;2023-03-03T03:44:19;94069.75;;;3.03;100.00
7918;BME280;4004;42.624;23.386;2023-03-03T03:46:46;94061.16;;;3.06;100.00
7918;BME280;4004;42.624;23.386;2023-03-03T03:49:12;94064.28;;;3.08;100.00
7918;BME280;4004;42.624;23.386;2023-03-03T03:51:41;94059.91;;;3.03;100.00
7918;BME280;4004;42.624;23.386;2023-03-03T03:54:07;94062.38;;;3.00;100.00
7918;BME280;4004;42.624;23.386;2023-03-03T03:56:34;94059.91;;;3.03;100.00
7918;BME280;4004;42.624;23.386;2023-03-03T03:59:01;94064.44;;;3.03;100.00
7918;BME280;4004;42.624;23.386;2023-03-03T04:01:27;94062.72;;;2.98;100.00
7918;BME280;4004;42.624;23.386;2023-03-03T04:03:54;94060.06;;;3.07;100.00
7918;BME280;4004;42.624;23.386;2023-03-03T04:06:21;94062.56;;;3.12;100.00
7918;BME280;4004;42.624;23.386;2023-03-03T04:08:49;94056.31;;;3.08;100.00
7918;BME280;4004;42.624;23.386;2023-03-03T04:11:16;94045.84;;;3.03;100.00
7918;BME280;4004;42.624;23.386;2023-03-03T04:13:42;94054.63;;;3.12;100.00
7918;BME280;4004;42.624;23.386;2023-03-03T04:16:09;94055.06;;;3.05;100.00
7918;BME280;4004;42.624;23.386;2023-03-03T04:18:36;94055.22;;;3.09;100.00
7918;BME280;4004;42.624;23.386;2023-03-03T04:21:03;94053.50;;;3.13;100.00
7918;BME280;4004;42.624;23.386;2023-03-03T04:23:30;94056.16;;;3.13;100.00
7918;BME280;4004;42.624;23.386;2023-03-03T04:25:58;94049.78;;;3.14;100.00
7918;BME280;4004;42.624;23.386;2023-03-03T04:28:25;94051.00;;;3.08;100.00
7918;BME280;4004;42.624;23.386;2023-03-03T04:30:52;94051.94;;;3.12;100.00
7918;BME280;4004;42.624;23.386;2023-03-03T04:33:18;94051.19;;;3.20;100.00
7918;BME280;4004;42.624;23.386;2023-03-03T04:35:45;94053.06;;;3.20;100.00
7918;BME280;4004;42.624;23.386;2023-03-03T04:38:12;94049.47;;;3.24;100.00
7918;BME280;4004;42.624;23.386;2023-03-03T04:40:39;94051.53;;;3.27;100.00
7918;BME280;4004;42.624;23.386;2023-03-03T04:43:08;94052.00;;;3.38;100.00
7918;BME280;4004;42.624;23.386;2023-03-03T04:45:35;94046.53;;;3.43;100.00
7918;BME280;4004;42.624;23.386;2023-03-03T04:48:03;94045.44;;;3.44;100.00
7918;BME280;4004;42.624;23.386;2023-03-03T04:50:29;94044.03;;;3.47;100.00
7918;BME280;4004;42.624;23.386;2023-03-03T04:52:56;94052.34;;;3.54;100.00
7918;BME280;4004;42.624;23.386;2023-03-03T04:55:23;94046.53;;;3.52;100.00
7918;BME280;4004;42.624;23.386;2023-03-03T04:57:49;94055.00;;;3.54;100.00
7918;BME280;4004;42.624;23.386;2023-03-03T05:00:18;94049.34;;;3.56;100.00
7918;BME280;4004;42.624;23.386;2023-03-03T05:02:46;94057.00;;;3.57;100.00
7918;BME280;4004;42.624;23.386;2023-03-03T05:05:13;94050.28;;;3.60;100.00
7918;BME280;4004;42.624;23.386;2023-03-03T05:07:40;94054.38;;;3.66;100.00
7918;BME280;4004;42.624;23.386;2023-03-03T05:10:08;94058.28;;;3.68;100.00
7918;BME280;4004;42.624;23.386;2023-03-03T05:12:35;94057.50;;;3.77;100.00
7918;BME280;4004;42.624;23.386;2023-03-03T05:15:01;94062.81;;;3.77;100.00
7918;BME280;4004;42.624;23.386;2023-03-03T05:17:30;94052.94;;;3.77;100.00
7918;BME280;4004;42.624;23.386;2023-03-03T05:19:56;94054.66;;;3.82;100.00
7918;BME280;4004;42.624;23.386;2023-03-03T05:22:23;94063.75;;;3.89;100.00
7918;BME280;4004;42.624;23.386;2023-03-03T05:24:50;94063.75;;;3.89;100.00
7918;BME280;4004;42.624;23.386;2023-03-03T05:27:18;94067.81;;;3.87;100.00
7918;BME280;4004;42.624;23.386;2023-03-03T05:29:44;94067.66;;;3.92;100.00
7918;BME280;4004;42.624;23.386;2023-03-03T05:32:11;94064.84;;;3.97;100.00
7918;BME280;4004;42.624;23.386;2023-03-03T05:34:39;94065.78;;;4.01;100.00
7918;BME280;4004;42.624;23.386;2023-03-03T05:37:06;94061.69;;;3.86;100.00
7918;BME280;4004;42.624;23.386;2023-03-03T05:39:33;94064.84;;;3.88;100.00
7918;BME280;4004;42.624;23.386;2023-03-03T05:42:01;94071.44;;;3.73;100.00
7918;BME280;4004;42.624;23.386;2023-03-03T05:44:27;94072.81;;;3.88;100.00
7918;BME280;4004;42.624;23.386;2023-03-03T05:46:54;94069.06;;;3.81;100.00
7918;BME280;4004;42.624;23.386;2023-03-03T05:49:23;94067.81;;;3.87;100.00
7918;BME280;4004;42.624;23.386;2023-03-03T05:51:51;94070.50;;;3.87;100.00
7918;BME280;4004;42.624;23.386;2023-03-03T05:54:18;94073.75;;;3.92;100.00
7918;BME280;4004;42.624;23.386;2023-03-03T05:56:44;94069.22;;;3.93;100.00
7918;BME280;4004;42.624;23.386;2023-03-03T05:59:11;94069.84;;;3.90;100.00
7918;BME280;4004;42.624;23.386;2023-03-03T06:01:38;94070.44;;;4.04;100.00
7918;BME280;4004;42.624;23.386;2023-03-03T06:04:05;94074.34;;;4.07;100.00
7918;BME280;4004;42.624;23.386;2023-03-03T06:06:31;94067.66;;;4.01;100.00
7918;BME280;4004;42.624;23.386;2023-03-03T06:08:59;94068.13;;;4.03;100.00
7918;BME280;4004;42.624;23.386;2023-03-03T06:11:26;94074.41;;;3.89;100.00
7918;BME280;4004;42.624;23.386;2023-03-03T06:13:53;94070.94;;;3.89;100.00
7918;BME280;4004;42.624;23.386;2023-03-03T06:16:20;94077.03;;;4.07;100.00
7918;BME280;4004;42.624;23.386;2023-03-03T06:18:46;94077.66;;;4.12;100.00
7918;BME280;4004;42.624;23.386;2023-03-03T06:21:13;94080.78;;;4.14;100.00
7918;BME280;4004;42.624;23.386;2023-03-03T06:23:40;94086.28;;;4.01;100.00
7918;BME280;4004;42.624;23.386;2023-03-03T06:26:08;94088.00;;;4.05;100.00
7918;BME280;4004;42.624;23.386;2023-03-03T06:28:35;94082.50;;;4.10;100.00
7918;BME280;4004;42.624;23.386;2023-03-03T06:31:01;94076.25;;;4.15;100.00
7918;BME280;4004;42.624;23.386;2023-03-03T06:33:28;94079.53;;;4.12;100.00
7918;BME280;4004;42.624;23.386;2023-03-03T06:35:55;94083.28;;;4.20;100.00
7918;BME280;4004;42.624;23.386;2023-03-03T06:38:22;94087.16;;;4.31;100.00
7918;BME280;4004;42.624;23.386;2023-03-03T06:40:48;94080.75;;;4.32;100.00
7918;BME280;4004;42.624;23.386;2023-03-03T06:43:16;94082.94;;;4.30;100.00
7918;BME280;4004;42.624;23.386;2023-03-03T06:45:44;94082.94;;;4.39;100.00
7918;BME280;4004;42.624;23.386;2023-03-03T06:48:11;94089.22;;;4.34;100.00
7918;BME280;4004;42.624;23.386;2023-03-03T06:50:38;94083.25;;;4.37;100.00
7918;BME280;4004;42.624;23.386;2023-03-03T06:53:10;94088.53;;;4.54;100.00
7918;BME280;4004;42.624;23.386;2023-03-03T06:55:37;94085.13;;;4.45;100.00
7918;BME280;4004;42.624;23.386;2023-03-03T06:58:09;94091.97;;;4.55;100.00
7918;BME280;4004;42.624;23.386;2023-03-03T07:00:40;94097.75;;;4.66;100.00
7918;BME280;4004;42.624;23.386;2023-03-03T07:03:13;94089.75;;;4.66;100.00
7918;BME280;4004;42.624;23.386;2023-03-03T07:05:40;94093.63;;;4.77;100.00
7918;BME280;4004;42.624;23.386;2023-03-03T07:08:12;94097.06;;;4.77;100.00
7918;BME280;4004;42.624;23.386;2023-03-03T07:10:39;94091.88;;;4.90;100.00
7918;BME280;4004;42.624;23.386;2023-03-03T07:13:17;94096.28;;;4.86;100.00
7918;BME280;4004;42.624;23.386;2023-03-03T07:15:46;94101.56;;;4.94;100.00
7918;BME280;4004;42.624;23.386;2023-03-03T07:18:24;94093.72;;;4.98;100.00
7918;BME280;4004;42.624;23.386;2023-03-03T07:20:54;94091.38;;;4.96;100.00
7918;BME280;4004;42.624;23.386;2023-03-03T07:23:24;94087.28;;;4.99;100.00
7918;BME280;4004;42.624;23.386;2023-03-03T07:25:51;94092.28;;;5.09;100.00
7918;BME280;4004;42.624;23.386;2023-03-03T07:28:22;94095.06;;;5.13;100.00
7918;BME280;4004;42.624;23.386;2023-03-03T07:30:50;94088.09;;;5.29;100.00
7918;BME280;4004;42.624;23.386;2023-03-03T07:33:22;94087.16;;;5.55;100.00
7918;BME280;4004;42.624;23.386;2023-03-03T07:35:51;94092.88;;;5.66;100.00
7918;BME280;4004;42.624;23.386;2023-03-03T07:38:28;94065.63;;;5.60;100.00
7918;BME280;4004;42.624;23.386;2023-03-03T07:40:57;94083.34;;;5.86;100.00
7918;BME280;4004;42.624;23.386;2023-03-03T07:43:29;94089.09;;;5.96;100.00
7918;BME280;4004;42.624;23.386;2023-03-03T07:46:15;94076.00;;;6.04;100.00
7918;BME280;4004;42.624;23.386;2023-03-03T07:48:45;94087.28;;;6.09;100.00
7918;BME280;4004;42.624;23.386;2023-03-03T07:51:18;94080.03;;;6.10;100.00
7918;BME280;4004;42.624;23.386;2023-03-03T07:53:47;94078.13;;;6.10;100.00
7918;BME280;4004;42.624;23.386;2023-03-03T07:56:19;94085.69;;;6.08;100.00
7918;BME280;4004;42.624;23.386;2023-03-03T07:58:48;94082.56;;;6.06;100.00
7918;BME280;4004;42.624;23.386;2023-03-03T08:01:31;94079.38;;;6.13;100.00
7918;BME280;4004;42.624;23.386;2023-03-03T08:04:10;94073.25;;;6.12;100.00
7918;BME280;4004;42.624;23.386;2023-03-03T08:06:44;94073.84;;;5.97;100.00
7918;BME280;4004;42.624;23.386;2023-03-03T08:09:38;94069.13;;;6.03;100.00
7918;BME280;4004;42.624;23.386;2023-03-03T08:12:32;94076.31;;;6.02;100.00
7918;BME280;4004;42.624;23.386;2023-03-03T08:15:22;94078.97;;;5.81;100.00
7918;BME280;4004;42.624;23.386;2023-03-03T08:17:52;94077.47;;;5.71;100.00
7918;BME280;4004;42.624;23.386;2023-03-03T08:20:40;94082.22;;;5.66;100.00
7918;BME280;4004;42.624;23.386;2023-03-03T08:23:08;94075.72;;;5.54;100.00
7918;BME280;4004;42.624;23.386;2023-03-03T08:25:35;94074.47;;;5.52;100.00
7918;BME280;4004;42.624;23.386;2023-03-03T08:28:02;94067.81;;;5.37;100.00
7918;BME280;4004;42.624;23.386;2023-03-03T08:30:30;94061.50;;;5.21;100.00
7918;BME280;4004;42.624;23.386;2023-03-03T08:32:59;94061.75;;;5.28;100.00
7918;BME280;4004;42.624;23.386;2023-03-03T08:35:26;94069.78;;;5.19;100.00
7918;BME280;4004;42.624;23.386;2023-03-03T08:37:53;94060.75;;;5.11;100.00
7918;BME280;4004;42.624;23.386;2023-03-03T08:40:20;94064.72;;;5.26;100.00
7918;BME280;4004;42.624;23.386;2023-03-03T08:42:46;94063.09;;;5.13;100.00
7918;BME280;4004;42.624;23.386;2023-03-03T08:45:13;94073.28;;;5.11;100.00
7918;BME280;4004;42.624;23.386;2023-03-03T08:47:40;94069.06;;;5.10;100.00
7918;BME280;4004;42.624;23.386;2023-03-03T08:50:12;94070.44;;;5.16;100.00
7918;BME280;4004;42.624;23.386;2023-03-03T08:52:39;94069.13;;;5.22;100.00
7918;BME280;4004;42.624;23.386;2023-03-03T08:55:07;94068.00;;;5.32;100.00
7918;BME280;4004;42.624;23.386;2023-03-03T08:57:33;94065.19;;;5.28;100.00
7918;BME280;4004;42.624;23.386;2023-03-03T09:00:00;94073.66;;;5.30;100.00
7918;BME280;4004;42.624;23.386;2023-03-03T09:02:27;94079.81;;;5.22;100.00
7918;BME280;4004;42.624;23.386;2023-03-03T09:04:54;94078.31;;;5.33;100.00
7918;BME280;4004;42.624;23.386;2023-03-03T09:07:22;94068.50;;;5.25;100.00
7918;BME280;4004;42.624;23.386;2023-03-03T09:09:49;94069.47;;;5.21;100.00
7918;BME280;4004;42.624;23.386;2023-03-03T09:12:17;94067.84;;;5.28;100.00
7918;BME280;4004;42.624;23.386;2023-03-03T09:14:45;94071.91;;;5.34;100.00
7918;BME280;4004;42.624;23.386;2023-03-03T09:17:21;94059.22;;;5.31;100.00
7918;BME280;4004;42.624;23.386;2023-03-03T09:19:49;94068.72;;;5.41;100.00
7918;BME280;4004;42.624;23.386;2023-03-03T09:22:19;94070.38;;;5.54;100.00
7918;BME280;4004;42.624;23.386;2023-03-03T09:24:49;94069.13;;;5.52;100.00
7918;BME280;4004;42.624;23.386;2023-03-03T09:27:22;94067.72;;;5.54;100.00
7918;BME280;4004;42.624;23.386;2023-03-03T09:29:52;94068.09;;;5.65;100.00
7918;BME280;4004;42.624;23.386;2023-03-03T09:32:26;94070.78;;;5.65;100.00
7918;BME280;4004;42.624;23.386;2023-03-03T09:34:55;94070.38;;;5.75;100.00
7918;BME280;4004;42.624;23.386;2023-03-03T09:37:23;94060.50;;;5.76;100.00
7918;BME280;4004;42.624;23.386;2023-03-03T09:39:55;94066.22;;;5.87;100.00
7918;BME280;4004;42.624;23.386;2023-03-03T09:42:38;94064.91;;;5.93;100.00
7918;BME280;4004;42.624;23.386;2023-03-03T09:45:17;94058.44;;;6.03;100.00
7918;BME280;4004;42.624;23.386;2023-03-03T09:47:52;94062.97;;;6.02;100.00
7918;BME280;4004;42.624;23.386;2023-03-03T09:50:30;94065.56;;;6.32;100.00
7918;BME280;4004;42.624;23.386;2023-03-03T09:53:09;94063.25;;;6.55;100.00
7918;BME280;4004;42.624;23.386;2023-03-03T09:55:46;94067.09;;;6.78;100.00
7918;BME280;4004;42.624;23.386;2023-03-03T09:58:27;94067.22;;;6.94;100.00
7918;BME280;4004;42.624;23.386;2023-03-03T10:01:12;94059.22;;;6.94;100.00
7918;BME280;4004;42.624;23.386;2023-03-03T10:04:07;94064.56;;;7.19;100.00
7918;BME280;4004;42.624;23.386;2023-03-03T10:06:42;94060.88;;;7.36;100.00
7918;BME280;4004;42.624;23.386;2023-03-03T10:09:35;94064.44;;;7.40;100.00
7918;BME280;4004;42.624;23.386;2023-03-03T10:12:12;94061.88;;;7.31;100.00
7918;BME280;4004;42.624;23.386;2023-03-03T10:14:56;94055.19;;;7.37;100.00
7918;BME280;4004;42.624;23.386;2023-03-03T10:17:35;94056.53;;;7.31;100.00
7918;BME280;4004;42.624;23.386;2023-03-03T10:20:35;94049.41;;;7.23;100.00
7918;BME280;4004;42.624;23.386;2023-03-03T10:23:11;94050.53;;;7.22;100.00
7918;BME280;4004;42.624;23.386;2023-03-03T10:25:52;94048.41;;;7.15;100.00
7918;BME280;4004;42.624;23.386;2023-03-03T10:28:50;94051.19;;;7.19;100.00
7918;BME280;4004;42.624;23.386;2023-03-03T10:31:32;94045.84;;;7.43;100.00
7918;BME280;4004;42.624;23.386;2023-03-03T10:34:13;94047.09;;;7.34;100.00
7918;BME280;4004;42.624;23.386;2023-03-03T10:36:52;94042.72;;;7.41;100.00
7918;BME280;4004;42.624;23.386;2023-03-03T10:42:28;94042.09;;;7.73;100.00
7918;BME280;4004;42.624;23.386;2023-03-03T10:45:11;94034.63;;;7.66;100.00
7918;BME280;4004;42.624;23.386;2023-03-03T10:48:01;94036.94;;;7.80;100.00
7918;BME280;4004;42.624;23.386;2023-03-03T10:50:40;94030.56;;;7.84;100.00
7918;BME280;4004;42.624;23.386;2023-03-03T10:53:20;94035.00;;;7.93;100.00
7918;BME280;4004;42.624;23.386;2023-03-03T10:55:55;94030.47;;;7.81;100.00
7918;BME280;4004;42.624;23.386;2023-03-03T10:58:37;94031.69;;;7.83;100.00
7918;BME280;4004;42.624;23.386;2023-03-03T11:01:20;94028.34;;;7.86;100.00
7918;BME280;4004;42.624;23.386;2023-03-03T11:04:06;94027.38;;;7.79;100.00
7918;BME280;4004;42.624;23.386;2023-03-03T11:06:41;94032.81;;;7.82;100.00
7918;BME280;4004;42.624;23.386;2023-03-03T11:09:17;94024.25;;;7.77;100.00
7918;BME280;4004;42.624;23.386;2023-03-03T11:11:50;94015.91;;;7.66;100.00
7918;BME280;4004;42.624;23.386;2023-03-03T11:14:23;94011.44;;;7.70;100.00
7918;BME280;4004;42.624;23.386;2023-03-03T11:16:59;94012.47;;;7.65;100.00
7918;BME280;4004;42.624;23.386;2023-03-03T11:19:39;94004.97;;;7.71;100.00
7918;BME280;4004;42.624;23.386;2023-03-03T11:22:19;93996.66;;;7.60;100.00
7918;BME280;4004;42.624;23.386;2023-03-03T11:24:59;94004.75;;;7.64;100.00
7918;BME280;4004;42.624;23.386;2023-03-03T11:27:54;94007.56;;;7.67;100.00
7918;BME280;4004;42.624;23.386;2023-03-03T11:30:45;93999.75;;;7.62;100.00
7918;BME280;4004;42.624;23.386;2023-03-03T11:33:18;94005.09;;;7.62;100.00
7918;BME280;4004;42.624;23.386;2023-03-03T11:35:49;94005.44;;;7.61;100.00
7918;BME280;4004;42.624;23.386;2023-03-03T11:38:44;93989.03;;;7.62;100.00
7918;BME280;4004;42.624;23.386;2023-03-03T11:41:20;94002.72;;;7.73;100.00
7918;BME280;4004;42.624;23.386;2023-03-03T11:43:51;93993.41;;;7.67;100.00
7918;BME280;4004;42.624;23.386;2023-03-03T11:46:22;93995.91;;;7.76;100.00
7918;BME280;4004;42.624;23.386;2023-03-03T11:48:57;93991.06;;;7.94;100.00
7918;BME280;4004;42.624;23.386;2023-03-03T11:51:33;93988.16;;;7.99;100.00
7918;BME280;4004;42.624;23.386;2023-03-03T11:54:07;93991.56;;;8.12;100.00
7918;BME280;4004;42.624;23.386;2023-03-03T11:56:39;93990.31;;;8.09;100.00
7918;BME280;4004;42.624;23.386;2023-03-03T11:59:24;93989.22;;;8.10;100.00
7918;BME280;4004;42.624;23.386;2023-03-03T12:01:56;93994.75;;;8.17;100.00
7918;BME280;4004;42.624;23.386;2023-03-03T12:04:30;93984.03;;;8.17;100.00
7918;BME280;4004;42.624;23.386;2023-03-03T12:07:12;93989.13;;;8.22;100.00
7918;BME280;4004;42.624;23.386;2023-03-03T12:09:50;93989.56;;;8.24;100.00
7918;BME280;4004;42.624;23.386;2023-03-03T12:12:22;93984.66;;;8.26;100.00
7918;BME280;4004;42.624;23.386;2023-03-03T12:14:58;93994.44;;;8.35;100.00
7918;BME280;4004;42.624;23.386;2023-03-03T12:17:44;93992.63;;;8.39;100.00
7918;BME280;4004;42.624;23.386;2023-03-03T12:20:24;93986.84;;;8.37;100.00
7918;BME280;4004;42.624;23.386;2023-03-03T12:23:10;93994.44;;;8.35;100.00
7918;BME280;4004;42.624;23.386;2023-03-03T12:25:42;93983.34;;;8.20;100.00
7918;BME280;4004;42.624;23.386;2023-03-03T12:28:16;93998.63;;;8.20;100.00
7918;BME280;4004;42.624;23.386;2023-03-03T12:31:02;93990.97;;;7.90;100.00
7918;BME280;4004;42.624;23.386;2023-03-03T12:33:44;93992.63;;;7.95;100.00
7918;BME280;4004;42.624;23.386;2023-03-03T12:36:24;93999.19;;;7.97;100.00
7918;BME280;4004;42.624;23.386;2023-03-03T12:39:01;94001.88;;;7.97;100.00
7918;BME280;4004;42.624;23.386;2023-03-03T12:41:35;93993.84;;;7.97;100.00
7918;BME280;4004;42.624;23.386;2023-03-03T12:44:07;93999.88;;;7.94;100.00
7918;BME280;4004;42.624;23.386;2023-03-03T12:46:45;94002.63;;;7.98;100.00
7918;BME280;4004;42.624;23.386;2023-03-03T12:49:18;93997.84;;;8.03;100.00
7918;BME280;4004;42.624;23.386;2023-03-03T12:52:06;93998.78;;;8.11;100.00
7918;BME280;4004;42.624;23.386;2023-03-03T12:54:45;93996.66;;;8.17;100.00
7918;BME280;4004;42.624;23.386;2023-03-03T12:57:21;93995.53;;;8.18;100.00
7918;BME280;4004;42.624;23.386;2023-03-03T13:00:02;93990.09;;;8.14;100.00
7918;BME280;4004;42.624;23.386;2023-03-03T13:02:40;93988.44;;;8.09;100.00
7918;BME280;4004;42.624;23.386;2023-03-03T13:05:18;93989.88;;;8.07;100.00
7918;BME280;4004;42.624;23.386;2023-03-03T13:07:55;93984.78;;;8.02;100.00
7918;BME280;4004;42.624;23.386;2023-03-03T13:10:34;93984.53;;;8.07;100.00
7918;BME280;4004;42.624;23.386;2023-03-03T13:13:09;93991.00;;;8.06;100.00
7918;BME280;4004;42.624;23.386;2023-03-03T13:15:40;93991.34;;;8.04;100.00
7918;BME280;4004;42.624;23.386;2023-03-03T13:18:23;93990.81;;;7.99;100.00
7918;BME280;4004;42.624;23.386;2023-03-03T13:20:54;93981.34;;;8.01;100.00
7918;BME280;4004;42.624;23.386;2023-03-03T13:23:36;93985.22;;;8.04;100.00
7918;BME280;4004;42.624;23.386;2023-03-03T13:26:09;93979.28;;;8.10;100.00
7918;BME280;4004;42.624;23.386;2023-03-03T13:28:54;93977.56;;;8.18;100.00
7918;BME280;4004;42.624;23.386;2023-03-03T13:31:25;93981.03;;;8.19;100.00
7918;BME280;4004;42.624;23.386;2023-03-03T13:33:58;93977.38;;;8.11;100.00
7918;BME280;4004;42.624;23.386;2023-03-03T13:36:29;93985.56;;;8.02;100.00